Time;durP1;ratioP1;P1;durP2;ratioP2;P2;SDS_P1;SDS_P2;PMS_P1;PMS_P2;Temp;Humidity;BMP_temperature;BMP_pressure;BME280_temperature;BME280_humidity;BME280_pressure;Samples;Min_cycle;Max_cycle;Signal;HPM_P1;HPM_P2
2024/04/21 00:02:23;;;;;;;;;;;;;;;;;;;;;
2024/04/21 00:05:01;;;;;;;0.00;0.00;;;;;;;5.40;59.17;101575.91;5333157;26;20008;-74
2024/04/21 00:07:46;;;;;;;;;;;;;;;;;;;;;
2024/04/21 00:10:20;;;;;;;0.00;0.00;;;;;;;5.62;59.54;101631.91;5295184;27;20013;-74
2024/04/21 00:13:03;;;;;;;;;;;;;;;;;;;;;
2024/04/21 00:15:32;;;;;;;0.00;0.00;;;;;;;5.45;60.27;101620.56;5341236;26;20002;-73
2024/04/21 00:18:18;;;;;;;0.10;0.10;;;;;;;5.38;60.77;101598.84;5340310;26;20000;-74
2024/04/21 00:21:03;;;;;;;;;;;;;;;;;;;;;
2024/04/21 00:23:31;;;;;;;0.00;0.00;;;;;;;5.44;61.51;101621.63;5311628;26;20505;-74
2024/04/21 00:26:50;;;;;;;0.10;0.10;;;;;;;5.25;61.45;101602.34;5298324;27;20320;-74
2024/04/21 00:29:15;;;;;;;0.03;0.03;;;;;;;5.20;61.26;101596.69;5326693;26;20075;-74
2024/04/21 00:32:01;;;;;;;0.00;0.00;;;;;;;5.20;61.61;101604.81;5304709;26;20017;-73
2024/04/21 00:35:20;;;;;;;;;;;;;;;;;;;;;
2024/04/21 00:38:52;;;;;;;0.00;0.00;;;;;;;5.17;62.34;101627.75;5135097;27;20000;-73
2024/04/21 00:42:08;;;;;;;;;;;;;;;;;;;;;
2024/04/21 00:48:22;;;;;;;0.10;0.10;;;;;;;4.82;62.68;101570.84;4998785;28;20003;-74
2024/04/21 01:28:59;;;;;;;0.10;0.10;;;;;;;4.21;66.64;101549.78;6734293;20;1312418;-75
2024/04/21 01:36:09;;;;;;;0.10;0.10;;;;;;;4.05;67.18;101536.53;6506650;22;20008;-73
2024/04/21 01:46:01;;;;;;;;;;;;;;;;;;;;;
2024/04/21 01:49:10;;;;;;;;;;;;;;;;;;;;;
2024/04/21 01:56:09;;;;;;;;;;;;;;;;;;;;;
2024/04/21 02:01:54;;;;;;;0.00;0.00;;;;;;;3.79;70.69;101555.03;6266810;22;20013;-74
2024/04/21 02:05:13;;;;;;;;;;;;;;;;;;;;;
2024/04/21 02:07:44;;;;;;;0.00;0.00;;;;;;;3.42;71.65;101537.19;6430865;22;20298;-73
2024/04/21 02:10:35;;;;;;;0.10;0.10;;;;;;;3.59;71.67;101579.19;6428212;21;19994;-73
2024/04/21 02:13:21;;;;;;;;;;;;;;;;;;;;;
2024/04/21 02:17:01;;;;;;;0.00;0.00;;;;;;;3.36;72.31;101567.69;6468165;22;19998;-73
2024/04/21 02:20:09;;;;;;;;;;;;;;;;;;;;;
2024/04/21 02:26:31;;;;;;;0.10;0.10;;;;;;;3.23;72.78;101563.81;6757706;21;19983;-73
2024/04/21 02:29:14;;;;;;;0.00;0.00;;;;;;;3.04;73.13;101537.34;6686205;21;20010;-75
2024/04/21 02:31:39;;;;;;;0.00;0.00;;;;;;;3.06;73.35;101541.53;6688053;21;19995;-73
2024/04/21 02:34:20;;;;;;;;;;;;;;;;;;;;;
2024/04/21 02:44:26;;;;;;;0.00;0.00;;;;;;;3.25;73.71;101575.25;6319506;22;20597;-75
2024/04/21 02:54:46;;;;;;;0.00;0.00;;;;;;;3.72;73.57;101583.06;6135104;23;20030;-73
2024/04/21 02:57:47;;;;;;;0.00;0.00;;;;;;;3.59;73.12;101530.50;6053981;23;20001;-73
2024/04/21 03:00:13;;;;;;;0.00;0.00;;;;;;;3.76;72.80;101541.06;6200688;23;20039;-74
2024/04/21 03:02:46;;;;;;;0.00;0.00;;;;;;;4.01;72.64;101555.84;6368460;22;20002;-73
2024/04/21 03:05:21;;;;;;;0.00;0.00;;;;;;;4.07;72.42;101539.88;6334015;22;20109;-73
2024/04/21 03:07:57;;;;;;;0.00;0.00;;;;;;;4.28;72.44;101556.09;6330300;22;19984;-72
2024/04/21 03:10:23;;;;;;;0.00;0.00;;;;;;;4.60;71.99;101594.47;6293630;22;20299;-74
2024/04/21 03:12:49;;;;;;;0.00;0.00;;;;;;;4.44;72.02;101570.38;6330002;22;19999;-75
2024/04/21 03:15:15;;;;;;;0.00;0.00;;;;;;;4.39;72.04;101572.84;6582087;21;20088;-72
2024/04/21 03:17:43;;;;;;;0.00;0.00;;;;;;;4.48;72.41;101588.75;6694536;21;20002;-74
2024/04/21 03:20:18;;;;;;;;;;;;;;;;;;;;;
2024/04/21 03:22:44;;;;;;;0.10;0.10;;;;;;;4.34;72.73;101566.13;6743547;21;20012;-74
2024/04/21 03:25:12;;;;;;;0.00;0.00;;;;;;;4.62;72.83;101589.69;6739269;21;20308;-73
2024/04/21 03:27:40;;;;;;;0.10;0.10;;;;;;;4.88;72.40;101618.00;6694108;21;20005;-73
2024/04/21 03:30:32;;;;;;;0.00;0.00;;;;;;;4.78;72.33;101571.44;6691011;21;19995;-75
2024/04/21 03:32:57;;;;;;;0.00;0.00;;;;;;;4.83;72.03;101577.09;6695059;21;19994;-73
2024/04/21 03:35:30;;;;;;;0.05;0.05;;;;;;;4.78;72.19;101566.03;6738658;21;20016;-73
2024/04/21 03:37:56;;;;;;;0.00;0.00;;;;;;;4.82;71.98;101556.44;6694815;21;19991;-74
2024/04/21 03:40:31;;;;;;;;;;;;;;;;;;;;;
2024/04/21 03:43:04;;;;;;;0.10;0.10;;;;;;;5.25;72.36;101615.91;6739294;21;20005;-74
2024/04/21 03:45:47;;;;;;;0.00;0.00;;;;;;;5.04;72.12;101574.28;6743870;21;20421;-73
2024/04/21 03:48:15;;;;;;;0.00;0.00;;;;;;;5.25;72.24;101597.72;6632535;21;19986;-73
2024/04/21 03:50:41;;;;;;;0.00;0.00;;;;;;;5.37;71.91;101619.72;6738028;21;19990;-74
2024/04/21 03:53:13;;;;;;;0.10;0.10;;;;;;;5.14;72.00;101581.19;6691923;21;20055;-72
2024/04/21 03:55:41;;;;;;;0.00;0.00;;;;;;;5.48;71.89;101621.00;6691962;21;20282;-74
2024/04/21 03:58:06;;;;;;;0.00;0.00;;;;;;;5.35;71.55;101586.53;6736172;21;20005;-76
2024/04/21 04:01:01;;;;;;;0.00;0.00;;;;;;;5.60;71.47;101623.97;6741490;21;19995;-74
2024/04/21 04:03:39;;;;;;;0.00;0.00;;;;;;;5.51;71.32;101589.94;6646012;21;20026;-74
2024/04/21 04:06:19;;;;;;;0.00;0.00;;;;;;;5.74;71.46;101620.25;6648375;21;19994;-73
2024/04/21 04:13:06;;;;;;;;;;;;;;;;;;;;;
2024/04/21 04:15:32;;;;;;;0.00;0.00;;;;;;;5.66;71.44;101563.44;6743078;21;20397;-74
2024/04/21 04:18:01;;;;;;;0.00;0.00;;;;;;;5.74;71.62;101573.28;6693959;21;19999;-75
2024/04/21 04:20:30;;;;;;;0.00;0.00;;;;;;;5.67;71.76;101559.69;6694167;21;20002;-74
2024/04/21 04:23:34;;;;;;;0.05;0.05;;;;;;;5.73;71.90;101574.31;6694260;21;20063;-74
2024/04/21 04:26:28;;;;;;;;;;;;;;;;;;;;;
2024/04/21 04:29:02;;;;;;;0.10;0.10;;;;;;;5.94;72.23;101614.03;6660351;21;19994;-74
2024/04/21 04:31:36;;;;;;;0.10;0.10;;;;;;;6.01;72.14;101614.91;6650028;21;20005;-73
2024/04/21 04:34:52;;;;;;;;;;;;;;;;;;;;;
2024/04/21 04:37:13;;;;;;;0.10;0.10;;;;;;;5.84;71.93;101575.59;6729479;21;20008;-74
2024/04/21 04:39:41;;;;;;;0.00;0.00;;;;;;;5.96;72.04;101592.94;6692470;21;19990;-74
2024/04/21 04:42:17;;;;;;;0.00;0.00;;;;;;;5.91;72.00;101576.44;6692198;21;19994;-74
2024/04/21 04:44:42;;;;;;;0.00;0.00;;;;;;;5.91;71.77;101581.88;6691988;21;20016;-76
2024/04/21 04:47:11;;;;;;;0.00;0.00;;;;;;;5.95;71.66;101597.53;6695466;21;19994;-74
2024/04/21 04:49:45;;;;;;;0.00;0.00;;;;;;;6.08;71.52;101615.75;6691461;21;20030;-75
2024/04/21 04:52:29;;;;;;;;;;;;;;;;;;;;;
2024/04/21 04:58:09;;;;;;;0.10;0.10;;;;;;;5.76;71.34;101555.72;6710182;21;20280;-75
2024/04/21 05:00:47;;;;;;;0.00;0.00;;;;;;;6.15;71.02;101609.50;6694359;21;20047;-74
2024/04/21 05:03:13;;;;;;;0.00;0.00;;;;;;;5.87;71.20;101553.44;6646496;21;19998;-74
2024/04/21 05:05:39;;;;;;;0.00;0.00;;;;;;;6.04;70.93;101572.94;6694462;21;20016;-75
2024/04/21 05:08:06;;;;;;;0.00;0.00;;;;;;;6.29;70.70;101620.19;6692990;21;20005;-75
2024/04/21 05:10:42;;;;;;;0.00;0.00;;;;;;;6.02;70.79;101583.19;6693666;21;20002;-74
2024/04/21 05:13:07;;;;;;;0.00;0.00;;;;;;;5.90;71.35;101593.78;6649175;21;19998;-74
2024/04/21 05:55:14;;;;;;;;;;;;;;;;;;;;;
2024/04/21 05:57:48;;;;;;;0.10;0.10;;;;;;;6.97;72.04;101656.31;6224002;22;20001;-74
2024/04/21 06:00:15;;;;;;;0.00;0.00;;;;;;;7.09;71.75;101651.88;6266619;22;20006;-73
2024/04/21 06:02:41;;;;;;;0.00;0.00;;;;;;;7.23;71.04;101643.66;6334843;22;20002;-75
2024/04/21 06:05:07;;;;;;;0.00;0.00;;;;;;;7.54;70.52;101672.06;6481600;22;19993;-74
2024/04/21 06:07:32;;;;;;;0.10;0.10;;;;;;;7.76;70.22;101673.44;6482365;22;19997;-75
2024/04/21 06:10:03;;;;;;;0.00;0.00;;;;;;;8.06;69.49;101685.63;6519309;22;19992;-75
2024/04/21 06:12:28;;;;;;;0.00;0.00;;;;;;;7.90;69.33;101665.19;6541131;21;20014;-74
2024/04/21 06:14:54;;;;;;;0.00;0.00;;;;;;;7.73;69.16;101671.13;6685949;21;19994;-74
2024/04/21 06:17:19;;;;;;;0.00;0.00;;;;;;;7.40;69.66;101661.19;6651292;21;19994;-76
2024/04/21 06:19:52;;;;;;;0.00;0.00;;;;;;;7.41;70.09;101690.09;6649895;21;20070;-75
2024/04/21 06:22:20;;;;;;;0.00;0.00;;;;;;;7.28;70.69;101690.13;6695362;21;19994;-75
2024/04/21 06:24:46;;;;;;;0.00;0.00;;;;;;;7.05;70.84;101674.28;6691987;21;20006;-74
2024/04/21 06:27:11;;;;;;;0.00;0.00;;;;;;;7.10;70.84;101667.16;6693694;21;19995;-76
2024/04/21 06:29:39;;;;;;;0.00;0.00;;;;;;;7.19;70.70;101664.22;6607134;21;20002;-73
2024/04/21 06:32:05;;;;;;;0.10;0.10;;;;;;;7.51;70.81;101695.94;6692089;21;20894;-73
2024/04/21 06:34:35;;;;;;;0.00;0.00;;;;;;;7.82;70.20;101686.16;6695566;21;20005;-75
2024/04/21 06:37:06;;;;;;;0.00;0.00;;;;;;;8.08;69.73;101705.34;6649225;21;20001;-74
2024/04/21 06:39:31;;;;;;;0.10;0.10;;;;;;;7.99;69.46;101691.13;6697055;21;20099;-75
2024/04/21 06:41:57;;;;;;;0.00;0.00;;;;;;;7.96;69.50;101658.88;6695235;21;20301;-75
2024/04/21 06:44:22;;;;;;;0.00;0.00;;;;;;;7.98;69.31;101664.94;6647789;21;20074;-74
2024/04/21 06:46:48;;;;;;;0.10;0.10;;;;;;;8.02;69.14;101674.34;6695058;21;20002;-77
2024/04/21 06:49:13;;;;;;;0.00;0.00;;;;;;;8.20;69.23;101704.41;6644891;21;20416;-74
2024/04/21 06:51:39;;;;;;;0.00;0.00;;;;;;;8.20;69.33;101696.22;6650178;21;19991;-74
2024/04/21 06:54:04;;;;;;;0.00;0.00;;;;;;;8.26;68.72;101675.44;6739612;21;20397;-76
2024/04/21 06:56:29;;;;;;;0.00;0.00;;;;;;;8.73;68.26;101696.94;6740720;21;20074;-75
2024/04/21 06:58:55;;;;;;;0.00;0.00;;;;;;;8.74;67.72;101687.69;6695738;21;20008;-74
2024/04/21 07:01:20;;;;;;;0.00;0.00;;;;;;;9.05;67.93;101710.50;6693242;21;19987;-75
2024/04/21 07:03:53;;;;;;;0.00;0.00;;;;;;;9.43;67.05;101688.50;6694811;21;20006;-73
2024/04/21 07:06:19;;;;;;;0.00;0.00;;;;;;;10.12;66.43;101693.72;6691275;21;20077;-74
2024/04/21 07:08:44;;;;;;;0.00;0.00;;;;;;;10.61;65.54;101701.00;6650481;21;20425;-73
2024/04/21 07:14:31;;;;;;;0.00;0.00;;;;;;;11.48;64.47;101696.75;6524942;22;19986;-74
2024/04/21 07:16:57;;;;;;;0.00;0.00;;;;;;;11.56;65.23;101699.09;6700577;21;20005;-74
2024/04/21 07:19:49;;;;;;;0.00;0.00;;;;;;;11.80;65.55;101719.06;6653600;21;19994;-74
2024/04/21 07:22:52;;;;;;;0.00;0.00;;;;;;;11.73;65.61;101701.09;6684727;21;20765;-75
2024/04/21 07:25:17;;;;;;;0.00;0.00;;;;;;;11.88;65.24;101723.31;6680289;21;20029;-74
2024/04/21 07:27:50;;;;;;;0.10;0.10;;;;;;;12.01;65.34;101724.97;6650817;21;19994;-72
2024/04/21 07:30:15;;;;;;;0.00;0.00;;;;;;;12.13;64.82;101716.69;6688148;21;19998;-75
2024/04/21 07:32:43;;;;;;;0.00;0.00;;;;;;;12.19;64.10;101721.19;6694276;21;20001;-72
2024/04/21 07:35:58;;;;;;;;;;;;;;;;;;;;;
2024/04/21 07:38:27;;;;;;;;;;;;;;;12.49;66.05;101723.69;6670096;21;19990;-75
2024/04/21 07:41:05;;;;;;;0.10;0.10;;;;;;;12.55;67.15;101680.69;6689736;21;19919;-72
2024/04/21 07:50:44;;;;;;;0.03;0.03;;;;;;;11.60;55.35;101724.09;6737881;21;20005;-72
2024/04/21 07:53:10;;;;;;;0.10;0.10;;;;;;;11.34;54.84;101727.09;6689169;21;19994;-71
2024/04/21 07:55:37;;;;;;;0.00;0.00;;;;;;;11.11;54.81;101718.91;6740263;21;20329;-75
2024/04/21 07:58:03;;;;;;;0.00;0.00;;;;;;;10.92;53.59;101708.09;6644180;21;19998;-75
2024/04/21 08:00:30;;;;;;;0.00;0.00;;;;;;;10.88;53.40;101728.78;6688756;21;20005;-74
2024/04/21 08:03:22;;;;;;;0.00;0.00;;;;;;;10.83;53.28;101731.38;6689102;21;19997;-74
2024/04/21 08:05:53;;;;;;;0.00;0.00;;;;;;;10.55;52.70;101702.78;6654686;21;19998;-75
2024/04/21 08:08:19;;;;;;;0.00;0.00;;;;;;;10.58;52.32;101717.91;6691922;21;20009;-76
2024/04/21 08:11:29;;;;;;;;;;;;;;;;;;;;;
2024/04/21 08:14:57;;;;;;;0.00;0.00;;;;;;;10.48;51.10;101685.63;6693940;21;19990;-75
2024/04/21 08:17:55;;;;;;;0.00;0.00;;;;;;;10.83;51.81;101698.53;6514104;21;20414;-74
2024/04/21 08:24:09;;;;;;;0.00;0.00;;;;;;;12.49;49.13;101737.41;6625685;21;20020;-75
2024/04/21 08:27:03;;;;;;;0.00;0.00;;;;;;;12.49;48.92;101703.66;6691623;21;20006;-79
2024/04/21 08:29:29;;;;;;;0.00;0.00;;;;;;;12.88;47.86;101728.47;6696362;21;19994;-76
2024/04/21 08:32:14;;;;;;;;;;;;;;;;;;;;;
2024/04/21 08:38:45;;;;;;;0.00;0.00;;;;;;;12.27;48.11;101734.53;6698010;21;19986;-74
2024/04/21 08:41:28;;;;;;;0.10;0.10;;;;;;;12.18;47.34;101672.94;6700196;21;20022;-77
2024/04/21 08:44:30;;;;;;;;;;;;;;;;;;;;;
2024/04/21 08:47:22;;;;;;;0.00;0.00;;;;;;;13.12;44.46;101700.81;6737104;21;20409;-77
2024/04/21 08:50:18;;;;;;;;;;;;;;;;;;;;;
2024/04/21 09:00:06;;;;;;;0.00;0.00;;;;;;;22.25;29.22;101720.09;6742435;21;20010;-75
2024/04/21 09:03:26;;;;;;;;;;;;;;;;;;;;;
2024/04/21 09:06:28;;;;;;;;;;;;;;;;;;;;;
2024/04/21 09:12:25;;;;;;;0.00;0.00;;;;;;;23.91;24.98;101735.03;6473408;22;20010;-76
2024/04/21 09:15:25;;;;;;;;;;;;;;;;;;;;;
2024/04/21 09:18:33;;;;;;;;;;;;;;;;;;;;;
2024/04/21 09:24:43;;;;;;;0.00;0.00;;;;;;;28.60;20.09;101686.38;6392996;22;20032;-75
2024/04/21 09:27:46;;;;;;;0.00;0.00;;;;;;;30.37;18.98;101719.69;6379364;22;19998;-75
2024/04/21 09:31:31;;;;;;;;;;;;;;;;;;;;;
2024/04/21 09:33:49;;;;;;;0.00;0.00;;;;;;;32.78;16.56;101733.28;6711934;21;20010;-75
2024/04/21 09:43:32;;;;;;;0.00;0.00;;;;;;;35.52;15.31;101709.16;6523743;22;20447;-76
2024/04/21 09:49:38;;;;;;;0.00;0.00;;;;;;;36.59;13.56;101693.72;6373736;22;19999;-76
2024/04/21 09:52:40;;;;;;;;;;;;;;;;;;;;;
2024/04/21 09:55:47;;;;;;;;;;;;;;;;;;;;;
2024/04/21 09:58:37;;;;;;;;;;;;;;;;;;;;;
2024/04/21 10:01:23;;;;;;;0.00;0.00;;;;;;;38.12;12.24;101699.72;6686322;21;19995;-76
2024/04/21 10:04:13;;;;;;;;;;;;;;;;;;;;;
2024/04/21 10:07:38;;;;;;;;;;;;;;;;;;;;;
2024/04/21 10:16:42;;;;;;;;;;;;;;;;;;;;;
2024/04/21 10:19:51;;;;;;;0.00;0.00;;;;;;;39.34;11.14;101726.53;6686595;21;19995;-76
2024/04/21 10:22:27;;;;;;;;;;;;;;;;;;;;;
2024/04/21 10:25:24;;;;;;;0.00;0.00;;;;;;;39.30;10.88;101714.34;6685620;21;20006;-74
2024/04/21 10:28:14;;;;;;;0.00;0.00;;;;;;;37.23;11.05;101703.06;6600844;21;19996;-75
2024/04/21 10:31:21;;;;;;;0.00;0.00;;;;;;;33.66;12.69;101669.28;6639002;21;19995;-75
2024/04/21 10:34:21;;;;;;;0.00;0.00;;;;;;;34.06;13.44;101678.00;6604216;21;20010;-76
2024/04/21 10:36:52;;;;;;;0.00;0.00;;;;;;;37.19;11.75;101714.50;6640464;21;19995;-75
2024/04/21 10:39:44;;;;;;;0.00;0.00;;;;;;;37.61;10.31;101697.41;6684192;21;20010;-75
2024/04/21 10:42:25;;;;;;;0.00;0.00;;;;;;;39.18;10.76;101715.78;6633353;21;20364;-76
2024/04/21 10:45:10;;;;;;;;;;;;;;;;;;;;;
2024/04/21 10:47:54;;;;;;;;;;;;;;;;;;;;;
2024/04/21 10:50:22;;;;;;;0.00;0.00;;;;;;;42.21;9.19;101709.59;6645990;21;20006;-75
2024/04/21 10:52:48;;;;;;;0.00;0.00;;;;;;;42.56;9.16;101715.47;6636236;21;19999;-74
2024/04/21 10:55:22;;;;;;;0.00;0.00;;;;;;;43.37;8.61;101705.84;6640313;21;20028;-75
2024/04/21 10:58:42;;;;;;;0.00;0.00;;;;;;;44.23;7.96;101711.38;6635378;21;19991;-77
2024/04/21 11:01:08;;;;;;;0.00;0.00;;;;;;;44.66;7.62;101699.38;6636211;21;20640;-76
2024/04/21 11:04:03;;;;;;;0.00;0.00;;;;;;;45.01;8.40;101719.34;6596035;21;19991;-77
2024/04/21 11:09:41;;;;;;;0.00;0.00;;;;;;;41.68;8.56;101688.97;6649752;21;20015;-75
2024/04/21 11:12:16;;;;;;;0.00;0.00;;;;;;;43.02;8.71;101712.41;6597369;21;19999;-77
2024/04/21 11:14:47;;;;;;;0.00;0.00;;;;;;;43.90;8.19;101685.06;6637419;21;20009;-75
2024/04/21 11:24:37;;;;;;;;;;;;;;;;;;;;;
2024/04/21 11:27:39;;;;;;;;;;;;;;;;;;;;;
2024/04/21 11:31:05;;;;;;;;;;;;;;;;;;;;;
2024/04/21 11:33:42;;;;;;;0.00;0.00;;;;;;;39.06;9.38;101682.88;6520991;22;19985;-76
2024/04/21 11:36:41;;;;;;;0.00;0.00;;;;;;;39.40;9.43;101667.56;6479843;22;19997;-76
2024/04/21 11:39:06;;;;;;;0.00;0.00;;;;;;;38.57;9.08;101673.81;6631129;21;20003;-76
2024/04/21 11:41:34;;;;;;;0.00;0.00;;;;;;;34.74;11.42;101685.94;6641356;21;20046;-76
2024/04/21 11:44:30;;;;;;;;;;;;;;;;;;;;;
2024/04/21 11:46:59;;;;;;;0.00;0.00;;;;;;;40.65;9.92;101708.38;6688200;21;20006;-76
2024/04/21 11:53:06;;;;;;;0.00;0.00;;;;;;;39.75;8.91;101688.16;6653524;21;20002;-77
2024/04/21 11:55:40;;;;;;;0.00;0.00;;;;;;;37.71;10.36;101678.56;6641845;21;20011;-76
2024/04/21 11:58:28;;;;;;;0.00;0.00;;;;;;;38.96;10.00;101703.88;6680793;21;20005;-77
2024/04/21 12:01:23;;;;;;;0.00;0.00;;;;;;;41.26;9.49;101678.19;6614344;21;20067;-75
2024/04/21 12:04:37;;;;;;;;;;;;;;;;;;;;;
2024/04/21 12:07:33;;;;;;;0.00;0.00;;;;;;;39.58;9.20;101689.34;6687962;21;20277;-75
2024/04/21 12:10:03;;;;;;;0.00;0.00;;;;;;;40.97;9.47;101666.66;6684215;21;20117;-75
2024/04/21 12:12:49;;;;;;;;;;;;;;;;;;;;;
2024/04/21 12:15:18;;;;;;;0.00;0.00;;;;;;;40.82;8.91;101667.00;6641398;21;20755;-78
2024/04/21 12:17:54;;;;;;;0.00;0.00;;;;;;;42.62;8.72;101689.88;6642665;21;20440;-76
2024/04/21 12:20:30;;;;;;;;;;;;;;;;;;;;;
2024/04/21 12:22:59;;;;;;;0.00;0.00;;;;;;;41.75;8.94;101674.44;6687471;21;19991;-76
2024/04/21 12:25:24;;;;;;;0.00;0.00;;;;;;;43.66;7.84;101667.41;6640181;21;20068;-76
2024/04/21 12:28:05;;;;;;;;;;;;;;;;;;;;;
2024/04/21 12:30:36;;;;;;;0.00;0.00;;;;;;;46.25;6.70;101708.47;6643319;21;20258;-75
2024/04/21 12:33:02;;;;;;;0.00;0.00;;;;;;;41.15;7.49;101703.47;6685847;21;20323;-76
2024/04/21 12:36:21;;;;;;;0.00;0.00;;;;;;;37.99;8.98;101697.41;6593234;21;19995;-76
2024/04/21 12:38:51;;;;;;;0.00;0.00;;;;;;;34.25;11.32;101689.03;6661358;21;19991;-76
2024/04/21 12:41:31;;;;;;;0.00;0.00;;;;;;;37.38;10.87;101675.25;6599638;21;19994;-76
2024/04/21 12:44:15;;;;;;;0.00;0.00;;;;;;;39.06;9.64;101671.44;6683263;21;19999;-76
2024/04/21 12:47:36;;;;;;;;;;;;;;;;;;;;;
2024/04/21 12:50:27;;;;;;;0.00;0.00;;;;;;;40.20;9.07;101637.34;6688331;21;19998;-76
2024/04/21 12:53:31;;;;;;;0.00;0.00;;;;;;;44.00;7.80;101688.78;6670781;21;19987;-76
2024/04/21 12:56:14;;;;;;;;;;;;;;;;;;;;;
2024/04/21 12:59:11;;;;;;;;;;;;;;;;;;;;;
2024/04/21 13:02:30;;;;;;;0.00;0.00;;;;;;;45.15;6.61;101695.66;6664222;21;19991;-76
2024/04/21 13:05:09;;;;;;;0.00;0.00;;;;;;;40.53;8.08;101646.03;6643557;21;20278;-77
2024/04/21 13:07:51;;;;;;;0.00;0.00;;;;;;;36.86;9.87;101676.09;6634195;21;20034;-75
2024/04/21 13:10:23;;;;;;;0.00;0.00;;;;;;;32.47;11.60;101679.53;6599004;21;19995;-76
2024/04/21 13:13:00;;;;;;;0.00;0.00;;;;;;;35.05;12.15;101689.25;6638281;21;20006;-76
2024/04/21 13:15:28;;;;;;;0.00;0.00;;;;;;;39.74;10.18;101677.97;6639071;21;19999;-75
2024/04/21 13:18:07;;;;;;;;;;;;;;;;;;;;;
2024/04/21 13:20:36;;;;;;;0.00;0.00;;;;;;;42.81;8.24;101650.63;6644135;21;20014;-76
2024/04/21 13:23:25;;;;;;;0.00;0.00;;;;;;;45.78;7.36;101680.91;6637532;21;20007;-76
2024/04/21 13:26:36;;;;;;;0.00;0.00;;;;;;;47.23;6.65;101669.69;6640934;21;20038;-76
2024/04/21 13:35:24;;;;;;;0.00;0.00;;;;;;;48.62;6.11;101668.22;6520751;22;19997;-76
2024/04/21 13:37:49;;;;;;;0.00;0.00;;;;;;;48.14;5.66;101688.81;6482266;22;20008;-76
2024/04/21 13:41:14;;;;;;;;;;;;;;;;;;;;;
2024/04/21 13:44:20;;;;;;;0.00;0.00;;;;;;;41.75;8.50;101683.03;6447607;22;19997;-77
2024/04/21 13:46:59;;;;;;;0.00;0.00;;;;;;;41.34;9.13;101662.41;6484473;21;20019;-75
2024/04/21 13:50:28;;;;;;;0.00;0.00;;;;;;;42.86;8.33;101652.94;6478069;22;20040;-75
2024/04/21 13:53:26;;;;;;;;;;;;;;;;;;;;;
2024/04/21 14:09:47;;;;;;;;;;;;;;;;;;;;;
2024/04/21 14:19:48;;;;;;;;;;;;;;;;;;;;;
2024/04/21 14:29:41;;;;;;;;;;;;;;;;;;;;;
2024/04/21 14:33:02;;;;;;;;;;;;;;;;;;;;;
2024/04/21 14:36:30;;;;;;;;;;;;;;;;;;;;;
2024/04/21 14:43:31;;;;;;;;;;;;;;;;;;;;;
2024/04/21 14:46:13;;;;;;;;;;;;;;;;;;;;;
2024/04/21 14:49:47;;;;;;;;;;;;;;;;;;;;;
2024/04/21 14:56:34;;;;;;;0.00;0.00;;;;;;;39.19;9.34;101611.56;6137510;23;20489;-76
2024/04/21 14:59:55;;;;;;;;;;;;;;;;;;;;;
2024/04/21 15:05:52;;;;;;;0.00;0.00;;;;;;;34.30;12.47;101644.47;6534428;21;20074;-76
2024/04/21 15:08:59;;;;;;;;;;;;;;;;;;;;;
2024/04/21 15:12:27;;;;;;;0.00;0.00;;;;;;;35.17;10.31;101606.41;6517467;21;19992;-75
2024/04/21 15:15:28;;;;;;;;;;;;;;;;;;;;;
2024/04/21 15:24:48;;;;;;;0.00;0.00;;;;;;;38.29;10.83;101641.59;6325403;22;20011;-76
2024/04/21 15:30:27;;;;;;;0.00;0.00;;;;;;;30.93;13.53;101656.28;6322717;22;20007;-75
2024/04/21 15:33:13;;;;;;;;;;;;;;;;;;;;;
2024/04/21 15:36:15;;;;;;;0.00;0.00;;;;;;;30.39;14.79;101640.34;6482672;22;20008;-77
2024/04/21 15:39:05;;;;;;;0.00;0.00;;;;;;;34.09;13.25;101669.50;6470735;22;20033;-76
2024/04/21 15:42:07;;;;;;;;;;;;;;;;;;;;;
2024/04/21 15:45:32;;;;;;;;;;;;;;;;;;;;;
2024/04/21 15:48:33;;;;;;;;;;;;;;;;;;;;;
2024/04/21 15:51:21;;;;;;;;;;;;;;;;;;;;;
2024/04/21 16:39:28;;;;;;;;;;;;;;;;;;;;;
2024/04/21 16:50:59;;;;;;;0.00;0.00;;;;;;;31.56;13.76;101690.00;5869063;23;20017;-77
2024/04/21 20:56:49;;;;;;;0.08;0.08;;;;;;;6.45;46.84;101778.41;6420483;22;19986;-75
2024/04/21 20:59:32;;;;;;;0.00;0.00;;;;;;;6.24;46.34;101760.38;6339562;22;20038;-74
2024/04/21 21:01:58;;;;;;;0.10;0.10;;;;;;;6.37;46.48;101790.31;6383364;22;20042;-75
2024/04/21 21:04:26;;;;;;;0.00;0.00;;;;;;;6.40;46.67;101803.47;6382593;22;20003;-75
2024/04/21 21:07:48;;;;;;;0.10;0.10;;;;;;;6.36;46.85;101802.19;6339448;22;20003;-75
2024/04/21 21:10:48;;;;;;;0.00;0.00;;;;;;;6.05;46.73;101762.81;6380074;22;20074;-74
2024/04/21 21:16:56;;;;;;;0.10;0.10;;;;;;;5.90;47.16;101757.50;6390698;22;20006;-75
2024/04/21 21:23:05;;;;;;;0.00;0.00;;;;;;;6.13;47.51;101807.13;6395209;22;20038;-76
2024/04/21 21:40:17;;;;;;;;;;;;;;;;;;;;;
2024/04/21 21:53:24;;;;;;;0.00;0.00;;;;;;;5.75;49.97;101811.94;5829879;24;19932;-75
2024/04/21 22:06:35;;;;;;;0.00;0.00;;;;;;;5.38;51.50;101800.41;5870752;24;20060;-75
2024/04/21 22:13:11;;;;;;;0.10;0.10;;;;;;;5.29;51.44;101800.78;5887932;24;20013;-74
2024/04/21 22:22:27;;;;;;;0.00;0.00;;;;;;;4.90;51.82;101778.56;5915499;24;20038;-75
2024/04/21 22:24:55;;;;;;;0.00;0.00;;;;;;;4.99;51.98;101790.94;5912926;23;20014;-77
2024/04/21 22:31:27;;;;;;;0.00;0.00;;;;;;;4.93;52.44;101797.13;6354416;22;20026;-77
2024/04/21 22:37:54;;;;;;;0.00;0.00;;;;;;;4.65;52.67;101756.44;6287508;22;20014;-81
2024/04/21 22:41:07;;;;;;;0.00;0.00;;;;;;;4.90;52.83;101808.38;6266051;22;20011;-78
2024/04/21 22:54:20;;;;;;;0.00;0.00;;;;;;;4.74;54.26;101808.63;6139580;22;20024;-76
2024/04/21 23:37:47;;;;;;;;;;;;;;;;;;;;;
2024/04/21 23:59:21;;;;;;;;;;;;;;;;;;;;;
